createdAt,value
2022-12-03T00:01:24.302Z,18.75
2022-12-03T00:03:51.718Z,17.27
2022-12-03T00:06:19.186Z,18.30
2022-12-03T00:08:46.429Z,16.42
2022-12-03T00:11:13.672Z,16.52
2022-12-03T00:13:40.887Z,19.50
2022-12-03T00:16:08.371Z,16.55
2022-12-03T00:18:35.776Z,16.45
2022-12-03T00:21:03.237Z,20.15
2022-12-03T00:23:32.586Z,18.52
2022-12-03T00:26:01.467Z,17.38
2022-12-03T00:28:28.774Z,17.30
2022-12-03T00:30:56.099Z,17.83
2022-12-03T00:33:24.319Z,18.60
2022-12-03T00:36:00.259Z,17.58
2022-12-03T00:38:27.606Z,17.38
2022-12-03T00:40:54.847Z,18.73
2022-12-03T00:43:22.084Z,18.10
2022-12-03T00:45:49.334Z,16.50
2022-12-03T00:48:16.612Z,16.48
2022-12-03T00:50:43.903Z,19.05
2022-12-03T00:53:11.196Z,17.80
2022-12-03T00:55:38.446Z,19.80
2022-12-03T00:58:08.273Z,16.67
2022-12-03T01:00:36.011Z,18.23
2022-12-03T01:03:03.511Z,17.13
2022-12-03T01:05:30.862Z,18.95
2022-12-03T01:07:58.269Z,18.73
2022-12-03T01:10:25.541Z,17.02
2022-12-03T01:12:52.763Z,17.23
2022-12-03T01:15:20.200Z,18.75
2022-12-03T01:17:47.440Z,19.48
2022-12-03T01:20:14.802Z,18.52
2022-12-03T01:22:44.030Z,19.42
2022-12-03T01:25:11.498Z,17.38
2022-12-03T01:27:38.782Z,17.30
2022-12-03T01:30:06.399Z,17.63
2022-12-03T01:32:33.659Z,18.35
2022-12-03T01:35:01.047Z,17.67
2022-12-03T01:37:28.446Z,16.85
2022-12-03T01:39:55.810Z,17.55
2022-12-03T01:42:24.658Z,18.77
2022-12-03T01:44:53.589Z,18.10
2022-12-03T01:47:23.256Z,17.15
2022-12-03T01:49:56.638Z,18.83
2022-12-03T01:52:25.447Z,18.63
2022-12-03T01:54:56.931Z,16.90
2022-12-03T01:57:26.988Z,17.05
2022-12-03T01:59:57.263Z,16.23
2022-12-03T02:02:31.712Z,17.15
2022-12-03T02:04:59.574Z,16.83
2022-12-03T02:07:26.912Z,15.18
2022-12-03T02:09:54.781Z,17.02
2022-12-03T02:12:24.111Z,16.80
2022-12-03T02:14:52.141Z,20.05
2022-12-03T02:17:19.601Z,22.05
2022-12-03T02:19:47.055Z,15.15
2022-12-03T02:22:34.586Z,15.10
2022-12-03T02:25:12.929Z,14.30
2022-12-03T02:27:40.704Z,17.67
2022-12-03T02:30:08.284Z,17.65
2022-12-03T02:32:35.540Z,17.52
2022-12-03T02:35:02.924Z,16.10
2022-12-03T02:37:35.711Z,17.73
2022-12-03T02:40:04.810Z,18.13
2022-12-03T02:42:34.956Z,17.02
2022-12-03T02:45:22.434Z,17.75
2022-12-03T02:47:54.507Z,16.65
2022-12-03T02:50:23.534Z,17.10
2022-12-03T02:52:52.793Z,14.75
2022-12-03T02:55:20.411Z,18.63
2022-12-03T02:57:48.605Z,15.30
2022-12-03T03:00:19.498Z,17.75
2022-12-03T03:02:47.854Z,16.73
2022-12-03T03:05:15.944Z,19.00
2022-12-03T03:07:43.533Z,17.73
2022-12-03T03:10:13.109Z,17.23
2022-12-03T03:12:40.628Z,16.45
2022-12-03T03:15:08.586Z,19.13
2022-12-03T03:17:36.029Z,17.13
2022-12-03T03:20:04.283Z,17.45
2022-12-03T03:22:35.260Z,16.92
2022-12-03T03:25:02.763Z,18.23
2022-12-03T03:27:30.359Z,18.55
2022-12-03T03:29:58.751Z,17.60
2022-12-03T03:32:26.977Z,19.30
2022-12-03T03:34:54.597Z,18.10
2022-12-03T03:37:22.235Z,17.00
2022-12-03T03:39:49.475Z,16.98
2022-12-03T03:42:16.873Z,19.50
2022-12-03T03:44:44.343Z,16.65
2022-12-03T03:47:11.729Z,19.98
2022-12-03T03:49:39.004Z,17.77
2022-12-03T03:52:06.464Z,17.05
2022-12-03T03:54:33.779Z,17.50
2022-12-03T03:57:01.070Z,18.98
2022-12-03T03:59:29.178Z,16.98
2022-12-03T04:01:56.723Z,20.13
2022-12-03T04:04:26.672Z,18.50
2022-12-03T04:06:53.979Z,16.23
2022-12-03T04:09:21.254Z,23.13
2022-12-03T04:12:07.137Z,17.83
2022-12-03T04:14:35.678Z,18.95
2022-12-03T04:17:03.091Z,19.60
2022-12-03T04:19:30.302Z,20.15
2022-12-03T04:22:17.043Z,21.05
2022-12-03T04:24:44.619Z,22.20
2022-12-03T04:27:30.701Z,21.25
2022-12-03T04:29:57.981Z,20.27
2022-12-03T04:32:43.980Z,20.38
2022-12-03T04:35:30.239Z,23.30
2022-12-03T04:37:57.620Z,22.77
2022-12-03T04:40:46.473Z,20.95
2022-12-03T04:43:13.905Z,21.83
2022-12-03T04:45:41.232Z,25.95
2022-12-03T04:48:08.529Z,23.33
2022-12-03T04:50:35.779Z,19.75
2022-12-03T04:53:03.054Z,22.73
2022-12-03T04:55:30.283Z,24.17
2022-12-03T04:57:57.538Z,22.35
2022-12-03T05:00:24.987Z,19.35
2022-12-03T05:02:52.268Z,24.27
2022-12-03T05:05:19.690Z,24.33
2022-12-03T05:07:46.954Z,22.95
2022-12-03T05:10:14.309Z,21.42
2022-12-03T05:12:41.597Z,23.60
2022-12-03T05:15:08.986Z,22.30
2022-12-03T05:17:36.218Z,21.70
2022-12-03T05:20:22.628Z,21.42
2022-12-03T05:22:49.826Z,21.60
2022-12-03T05:25:17.013Z,22.35
2022-12-03T05:27:44.164Z,21.92
2022-12-03T05:30:11.611Z,22.35
2022-12-03T05:32:38.817Z,25.23
2022-12-03T05:35:06.253Z,23.00
2022-12-03T05:37:33.540Z,23.10
2022-12-03T05:40:00.786Z,21.90
2022-12-03T05:42:46.581Z,24.15
2022-12-03T05:45:13.779Z,21.92
2022-12-03T05:47:41.006Z,21.95
2022-12-03T05:50:08.485Z,22.25
2022-12-03T05:52:35.766Z,23.80
2022-12-03T05:55:03.024Z,22.13
2022-12-03T05:57:30.354Z,23.52
2022-12-03T05:59:57.719Z,22.80
2022-12-03T06:02:25.081Z,20.45
2022-12-03T06:04:52.753Z,22.63
2022-12-03T06:07:20.162Z,20.40
2022-12-03T06:09:47.421Z,22.30
2022-12-03T06:12:14.628Z,20.55
2022-12-03T06:14:44.985Z,22.40
2022-12-03T06:17:12.226Z,23.23
2022-12-03T06:19:39.644Z,21.27
2022-12-03T06:22:06.839Z,21.58
2022-12-03T06:24:34.075Z,22.33
2022-12-03T06:27:01.254Z,21.83
2022-12-03T06:29:28.481Z,22.05
2022-12-03T06:31:55.748Z,21.63
2022-12-03T06:34:23.086Z,22.92
2022-12-03T06:36:50.395Z,22.80
2022-12-03T06:39:17.866Z,22.15
2022-12-03T06:41:45.082Z,22.40
2022-12-03T06:44:13.042Z,21.13
2022-12-03T06:46:40.424Z,22.40
2022-12-03T06:49:09.219Z,21.08
2022-12-03T06:51:36.815Z,22.37
2022-12-03T06:54:04.625Z,20.33
2022-12-03T06:56:36.788Z,21.77
2022-12-03T06:59:06.621Z,19.27
2022-12-03T07:01:34.175Z,21.85
2022-12-03T07:04:01.458Z,22.45
2022-12-03T07:06:28.737Z,21.83
2022-12-03T07:08:56.031Z,20.75
2022-12-03T07:11:32.831Z,22.05
2022-12-03T07:14:05.937Z,24.55
2022-12-03T07:16:33.766Z,24.55
2022-12-03T07:19:01.107Z,24.42
2022-12-03T07:21:28.346Z,21.83
2022-12-03T07:23:57.013Z,23.58
2022-12-03T07:26:24.257Z,26.17
2022-12-03T07:28:51.533Z,22.98
2022-12-03T07:31:18.816Z,23.30
2022-12-03T07:33:46.123Z,24.80
2022-12-03T07:36:13.917Z,22.77
2022-12-03T07:38:41.167Z,23.17
2022-12-03T07:41:08.389Z,23.00
2022-12-03T07:43:35.654Z,25.08
2022-12-03T07:46:02.899Z,21.98
2022-12-03T07:48:30.098Z,25.55
2022-12-03T07:50:58.875Z,22.88
2022-12-03T07:53:26.040Z,25.92
2022-12-03T07:55:53.312Z,22.30
2022-12-03T07:58:20.545Z,25.52
2022-12-03T08:00:47.912Z,27.25
2022-12-03T08:03:15.102Z,25.83
2022-12-03T08:05:42.290Z,27.17
2022-12-03T08:08:09.648Z,24.35
2022-12-03T08:10:37.099Z,26.70
2022-12-03T08:13:07.391Z,25.08
2022-12-03T08:15:39.346Z,30.92
2022-12-03T08:18:22.520Z,26.23
2022-12-03T08:20:51.219Z,27.17
2022-12-03T08:23:19.672Z,24.10
2022-12-03T08:25:47.229Z,26.42
2022-12-03T08:28:16.777Z,26.52
2022-12-03T08:30:44.622Z,24.77
2022-12-03T08:33:21.156Z,25.88
2022-12-03T08:35:50.956Z,21.88
2022-12-03T08:38:19.734Z,25.65
2022-12-03T08:40:48.297Z,23.00
2022-12-03T08:43:24.723Z,22.70
2022-12-03T08:45:53.534Z,22.75
2022-12-03T08:48:20.900Z,23.85
2022-12-03T08:50:48.280Z,24.17
2022-12-03T08:53:27.759Z,24.63
2022-12-03T08:55:56.778Z,23.08
2022-12-03T08:58:23.990Z,18.90
2022-12-03T09:01:14.582Z,23.95
2022-12-03T09:03:52.387Z,24.00
2022-12-03T09:06:19.646Z,21.08
2022-12-03T09:08:49.014Z,21.45
2022-12-03T09:11:16.277Z,22.27
2022-12-03T09:13:43.676Z,25.70
2022-12-03T09:16:10.980Z,24.70
2022-12-03T09:18:41.299Z,24.92
2022-12-03T09:21:08.557Z,24.65
2022-12-03T09:23:35.787Z,22.52
2022-12-03T09:26:02.993Z,21.45
2022-12-03T09:28:30.295Z,22.65
2022-12-03T09:30:59.575Z,22.02
2022-12-03T09:33:26.793Z,22.63
2022-12-03T09:35:54.055Z,22.23
2022-12-03T09:38:21.234Z,19.08
2022-12-03T09:40:51.146Z,20.30
2022-12-03T09:43:21.329Z,20.73
2022-12-03T09:45:49.670Z,21.00
2022-12-03T09:48:19.049Z,21.27
2022-12-03T09:50:47.216Z,24.15
2022-12-03T09:53:16.562Z,24.15
2022-12-03T09:55:45.580Z,22.02
2022-12-03T09:58:13.728Z,19.92
2022-12-03T10:00:42.432Z,19.27
2022-12-03T10:03:13.372Z,20.85
2022-12-03T10:05:46.607Z,21.08
2022-12-03T10:08:18.612Z,21.80
2022-12-03T10:10:48.391Z,22.25
2022-12-03T10:13:29.446Z,21.90
2022-12-03T10:15:58.255Z,24.98
2022-12-03T10:18:30.827Z,24.07
2022-12-03T10:20:58.545Z,23.90
2022-12-03T10:23:27.658Z,21.38
2022-12-03T10:25:59.288Z,16.20
2022-12-03T10:28:53.170Z,22.13
2022-12-03T10:31:35.542Z,22.45
2022-12-03T10:34:03.110Z,23.33
2022-12-03T10:36:30.406Z,21.15
2022-12-03T10:39:14.411Z,24.40
2022-12-03T10:41:42.809Z,25.15
2022-12-03T10:44:20.510Z,23.40
2022-12-03T10:47:05.843Z,23.58
2022-12-03T10:49:33.505Z,23.20
2022-12-03T10:52:00.956Z,23.63
2022-12-03T10:54:30.884Z,22.77
2022-12-03T10:56:58.499Z,24.15
2022-12-03T10:59:27.336Z,24.02
2022-12-03T11:01:54.635Z,28.37
2022-12-03T11:04:29.217Z,29.35
2022-12-03T11:06:56.535Z,25.77
2022-12-03T11:09:28.800Z,28.30
2022-12-03T11:11:56.493Z,24.38
2022-12-03T11:14:42.520Z,24.23
2022-12-03T11:17:09.846Z,30.13
2022-12-03T11:19:37.114Z,25.65
2022-12-03T11:22:07.090Z,25.85
2022-12-03T11:24:36.030Z,25.05
2022-12-03T11:27:03.321Z,25.55
2022-12-03T11:29:49.705Z,25.33
2022-12-03T11:32:46.477Z,26.27
2022-12-03T11:35:13.722Z,24.98
2022-12-03T11:37:40.929Z,25.83
2022-12-03T11:40:17.600Z,25.95
2022-12-03T11:42:45.898Z,25.85
2022-12-03T11:45:16.280Z,25.05
2022-12-03T11:47:45.472Z,24.52
2022-12-03T11:50:18.760Z,23.33
2022-12-03T11:52:47.615Z,26.60
2022-12-03T11:55:14.958Z,24.40
2022-12-03T11:57:43.394Z,26.38
2022-12-03T12:00:14.243Z,27.92
2022-12-03T12:02:42.505Z,23.33
2022-12-03T12:05:17.332Z,24.40
2022-12-03T12:07:47.899Z,22.92
2022-12-03T12:10:35.188Z,25.30
2022-12-03T12:13:02.498Z,23.63
2022-12-03T12:15:35.746Z,25.30
2022-12-03T12:18:21.770Z,24.83
2022-12-03T12:20:49.107Z,23.75
2022-12-03T12:23:23.596Z,26.58
2022-12-03T12:25:54.199Z,27.73
2022-12-03T12:28:21.691Z,25.83
2022-12-03T12:30:50.015Z,25.02
2022-12-03T12:33:24.217Z,28.27
2022-12-03T12:35:51.672Z,27.00
2022-12-03T12:38:20.256Z,29.13
2022-12-03T12:40:49.522Z,28.38
2022-12-03T12:43:24.025Z,24.50
2022-12-03T12:45:53.727Z,24.58
2022-12-03T12:48:23.790Z,24.48
2022-12-03T12:50:58.692Z,22.25
2022-12-03T12:53:27.426Z,25.10
2022-12-03T12:55:59.659Z,20.13
2022-12-03T12:58:29.342Z,22.17
2022-12-03T13:03:26.746Z,24.75
2022-12-03T13:05:54.325Z,25.50
2022-12-03T13:08:26.554Z,24.67
2022-12-03T13:10:55.125Z,25.88
2022-12-03T13:13:25.274Z,24.90
2022-12-03T13:15:53.976Z,24.83
2022-12-03T13:18:21.607Z,24.45
2022-12-03T13:20:49.189Z,26.58
2022-12-03T13:23:35.916Z,29.17
2022-12-03T13:26:23.819Z,24.95
2022-12-03T13:28:57.308Z,28.88
2022-12-03T13:31:24.884Z,25.05
2022-12-03T13:33:52.652Z,27.38
2022-12-03T13:36:21.031Z,26.00
2022-12-03T13:38:48.519Z,24.00
2022-12-03T13:41:37.179Z,22.80
2022-12-03T13:44:13.008Z,24.45
2022-12-03T13:46:40.446Z,25.77
2022-12-03T13:49:26.488Z,27.35
2022-12-03T13:51:53.829Z,23.75
2022-12-03T13:54:22.595Z,24.20
2022-12-03T13:56:51.121Z,20.60
2022-12-03T13:59:22.942Z,25.98
2022-12-03T14:01:53.381Z,24.70
2022-12-03T14:04:20.635Z,23.88
2022-12-03T14:06:47.940Z,23.92
2022-12-03T14:09:15.309Z,23.17
2022-12-03T14:12:01.311Z,26.00
2022-12-03T14:14:28.481Z,24.67
2022-12-03T14:16:59.860Z,24.00
2022-12-03T14:19:27.708Z,22.50
2022-12-03T14:21:55.233Z,25.55
2022-12-03T14:24:22.470Z,20.75
2022-12-03T14:26:49.725Z,23.15
2022-12-03T14:29:17.575Z,23.95
2022-12-03T14:31:44.852Z,21.25
2022-12-03T14:34:12.361Z,23.48
2022-12-03T14:36:40.237Z,25.15
2022-12-03T14:39:07.686Z,29.50
2022-12-03T14:41:53.520Z,23.55
2022-12-03T14:44:24.989Z,21.13
2022-12-03T14:46:57.046Z,25.45
2022-12-03T14:49:25.135Z,25.38
2022-12-03T14:51:52.393Z,24.02
2022-12-03T14:54:19.669Z,22.67
2022-12-03T14:56:46.925Z,23.38
2022-12-03T14:59:14.230Z,25.77
2022-12-03T15:01:41.700Z,22.05
2022-12-03T15:04:09.113Z,23.80
2022-12-03T15:06:36.392Z,22.38
2022-12-03T15:09:03.803Z,23.17
2022-12-03T15:11:31.007Z,22.05
2022-12-03T15:13:58.387Z,22.58
2022-12-03T15:16:25.855Z,25.50
2022-12-03T15:18:53.623Z,21.65
2022-12-03T15:21:21.056Z,20.60
2022-12-03T15:23:48.321Z,18.48
2022-12-03T15:26:15.649Z,20.27
2022-12-03T15:28:48.038Z,19.80
2022-12-03T15:31:15.723Z,20.55
2022-12-03T15:33:42.994Z,19.77
2022-12-03T15:36:10.406Z,20.05
2022-12-03T15:38:37.711Z,21.45
2022-12-03T15:41:23.917Z,22.00
2022-12-03T15:43:52.835Z,20.35
2022-12-03T15:46:20.740Z,21.13
2022-12-03T15:48:48.716Z,22.00
2022-12-03T15:51:16.207Z,23.90
2022-12-03T15:53:43.899Z,22.15
2022-12-03T15:56:12.109Z,21.95
2022-12-03T15:58:40.188Z,23.05
2022-12-03T16:01:08.037Z,23.42
2022-12-03T16:03:35.570Z,22.95
2022-12-03T16:06:03.006Z,24.05
2022-12-03T16:08:30.385Z,21.23
2022-12-03T16:10:57.616Z,21.58
2022-12-03T16:13:26.132Z,20.08
2022-12-03T16:15:53.650Z,23.90
2022-12-03T16:18:21.040Z,21.55
2022-12-03T16:20:48.321Z,21.75
2022-12-03T16:23:15.518Z,23.55
2022-12-03T16:25:42.773Z,20.75
2022-12-03T16:28:10.081Z,21.83
2022-12-03T16:30:37.499Z,20.23
2022-12-03T16:33:04.851Z,22.70
2022-12-03T16:35:32.166Z,23.95
2022-12-03T16:37:59.454Z,23.42
2022-12-03T16:40:26.755Z,19.90
2022-12-03T16:42:54.093Z,22.77
2022-12-03T16:45:21.384Z,21.55
2022-12-03T16:47:49.503Z,26.75
2022-12-03T16:50:24.471Z,21.40
2022-12-03T16:52:56.391Z,20.75
2022-12-03T16:55:23.632Z,23.38
2022-12-03T16:57:50.933Z,22.35
2022-12-03T17:00:18.558Z,21.50
2022-12-03T17:02:45.977Z,21.35
2022-12-03T17:05:13.369Z,22.23
2022-12-03T17:07:40.831Z,26.65
2022-12-03T17:10:08.637Z,23.60
2022-12-03T17:13:01.254Z,24.27
2022-12-03T17:15:23.140Z,24.15
2022-12-03T17:17:50.419Z,23.38
2022-12-03T17:20:18.093Z,24.98
2022-12-03T17:22:45.472Z,26.95
2022-12-03T17:25:13.011Z,21.45
2022-12-03T17:27:45.170Z,22.95
2022-12-03T17:30:13.548Z,25.30
2022-12-03T17:32:41.078Z,25.48
2022-12-03T17:35:08.885Z,23.42
2022-12-03T17:37:36.474Z,23.80
2022-12-03T17:40:07.835Z,24.58
2022-12-03T17:42:35.260Z,22.13
2022-12-03T17:45:02.589Z,22.35
2022-12-03T17:47:29.846Z,21.58
2022-12-03T17:49:57.502Z,23.00
2022-12-03T17:52:24.963Z,25.52
2022-12-03T17:55:10.420Z,19.88
2022-12-03T17:57:38.301Z,23.20
2022-12-03T18:00:05.962Z,22.30
2022-12-03T18:02:39.386Z,20.83
2022-12-03T18:05:07.138Z,22.77
2022-12-03T18:07:34.552Z,22.42
2022-12-03T18:10:02.024Z,23.90
2022-12-03T18:12:29.243Z,23.13
2022-12-03T18:14:57.401Z,22.02
2022-12-03T18:17:24.671Z,19.92
2022-12-03T18:19:52.145Z,20.92
2022-12-03T18:22:20.021Z,20.58
2022-12-03T18:24:50.276Z,22.83
2022-12-03T18:27:20.755Z,26.75
2022-12-03T18:29:48.012Z,20.23
2022-12-03T18:34:57.146Z,42.53
2022-12-03T18:37:26.839Z,32.03
2022-12-03T18:42:23.134Z,27.02
2022-12-03T18:44:51.452Z,34.40
2022-12-03T18:47:28.779Z,23.35
2022-12-03T18:49:56.712Z,22.10
2022-12-03T18:52:25.172Z,30.10
2022-12-03T18:54:52.663Z,23.30
2022-12-03T18:57:19.877Z,23.33
2022-12-03T18:59:47.237Z,21.10
2022-12-03T19:02:45.919Z,23.48
2022-12-03T19:05:07.038Z,25.63
2022-12-03T19:07:34.325Z,24.98
2022-12-03T19:10:01.651Z,24.92
2022-12-03T19:12:28.922Z,24.45
2022-12-03T19:14:56.267Z,27.80
2022-12-03T19:17:23.713Z,24.50
2022-12-03T19:19:50.978Z,26.60
2022-12-03T19:22:18.406Z,26.60
2022-12-03T19:24:45.730Z,24.85
2022-12-03T19:27:12.959Z,23.90
2022-12-03T19:29:40.447Z,23.95
2022-12-03T19:32:07.765Z,25.77
2022-12-03T19:34:35.266Z,22.67
2022-12-03T19:37:02.584Z,23.98
2022-12-03T19:39:29.990Z,24.65
2022-12-03T19:41:57.821Z,25.65
2022-12-03T19:44:25.098Z,24.25
2022-12-03T19:46:54.972Z,22.13
2022-12-03T19:49:22.385Z,26.52
2022-12-03T19:51:49.974Z,24.35
2022-12-03T19:54:17.693Z,25.40
2022-12-03T19:56:45.194Z,26.63
2022-12-03T19:59:13.616Z,22.33
2022-12-03T20:01:42.995Z,27.15
2022-12-03T20:04:11.912Z,25.45
2022-12-03T20:06:39.564Z,22.15
2022-12-03T20:09:17.294Z,25.90
2022-12-03T20:11:45.721Z,26.10
2022-12-03T20:14:15.346Z,23.13
2022-12-03T20:16:43.029Z,24.65
2022-12-03T20:19:11.884Z,26.77
2022-12-03T20:21:39.584Z,26.03
2022-12-03T20:24:07.873Z,26.38
2022-12-03T20:26:35.339Z,25.77
2022-12-03T20:29:02.691Z,26.55
2022-12-03T20:31:31.069Z,22.83
2022-12-03T20:33:59.678Z,24.00
2022-12-03T20:36:27.457Z,22.83
2022-12-03T20:38:55.479Z,27.90
2022-12-03T20:41:22.697Z,27.08
2022-12-03T20:43:50.281Z,27.95
2022-12-03T20:46:21.066Z,23.20
2022-12-03T20:48:48.691Z,28.73
2022-12-03T20:51:18.090Z,25.33
2022-12-03T20:53:47.584Z,25.38
2022-12-03T20:56:28.534Z,26.63
2022-12-03T20:58:55.794Z,25.30
2022-12-03T21:01:24.473Z,26.15
2022-12-03T21:03:53.003Z,23.48
2022-12-03T21:06:20.904Z,28.70
2022-12-03T21:08:48.445Z,26.95
2022-12-03T21:11:17.172Z,28.63
2022-12-03T21:13:44.672Z,25.70
2022-12-03T21:16:13.260Z,28.33
2022-12-03T21:18:40.738Z,27.00
2022-12-03T21:21:08.680Z,27.35
2022-12-03T21:23:36.406Z,28.15
2022-12-03T21:26:11.284Z,27.45
2022-12-03T21:28:39.289Z,26.63
2022-12-03T21:31:09.000Z,27.05
2022-12-03T21:33:39.803Z,28.57
2022-12-03T21:36:07.651Z,25.40
2022-12-03T21:38:35.602Z,28.20
2022-12-03T21:41:03.231Z,28.48
2022-12-03T21:43:30.595Z,25.65
2022-12-03T21:45:57.952Z,28.35
2022-12-03T21:48:25.296Z,28.65
2022-12-03T21:51:03.514Z,28.25
2022-12-03T21:53:32.209Z,26.92
2022-12-03T21:56:00.193Z,25.25
2022-12-03T21:58:27.629Z,26.15
2022-12-03T22:00:54.932Z,27.10
2022-12-03T22:03:22.321Z,25.90
2022-12-03T22:05:50.403Z,27.88
2022-12-03T22:08:17.846Z,25.30
2022-12-03T22:10:45.156Z,26.50
2022-12-03T22:13:12.503Z,24.30
2022-12-03T22:15:40.285Z,25.02
2022-12-03T22:18:07.729Z,26.23
2022-12-03T22:20:35.044Z,22.63
2022-12-03T22:23:02.445Z,26.33
2022-12-03T22:25:30.738Z,23.38
2022-12-03T22:27:57.948Z,26.20
2022-12-03T22:30:25.344Z,25.20
2022-12-03T22:32:52.655Z,26.60
2022-12-03T22:35:19.919Z,28.65
2022-12-03T22:37:47.183Z,25.20
2022-12-03T22:40:14.612Z,26.58
2022-12-03T22:42:46.392Z,25.17
2022-12-03T22:45:17.823Z,24.38
2022-12-03T22:47:45.109Z,23.23
2022-12-03T22:50:12.376Z,25.42
2022-12-03T22:52:39.716Z,26.42
2022-12-03T22:55:07.126Z,26.08
2022-12-03T22:57:34.386Z,27.23
2022-12-03T23:00:01.603Z,26.35
2022-12-03T23:02:28.874Z,26.13
2022-12-03T23:04:56.542Z,25.90
2022-12-03T23:07:23.887Z,25.60
2022-12-03T23:09:51.148Z,25.20
2022-12-03T23:12:18.386Z,26.85
2022-12-03T23:14:45.657Z,25.83
2022-12-03T23:17:12.888Z,25.90
2022-12-03T23:19:40.191Z,28.52
2022-12-03T23:22:07.420Z,24.65
2022-12-03T23:24:34.658Z,25.98
2022-12-03T23:27:02.019Z,24.67
2022-12-03T23:29:32.230Z,25.77
2022-12-03T23:31:59.439Z,24.08
2022-12-03T23:34:26.893Z,25.25
2022-12-03T23:36:54.137Z,27.45
2022-12-03T23:39:21.414Z,27.85
2022-12-03T23:41:52.814Z,25.63
2022-12-03T23:44:20.217Z,26.23
2022-12-03T23:46:47.507Z,26.75
2022-12-03T23:49:16.859Z,27.08
2022-12-03T23:51:44.095Z,30.65
2022-12-03T23:54:12.211Z,29.20
2022-12-03T23:56:41.569Z,28.38
2022-12-03T23:59:16.243Z,28.15
